createdAt,value
2023-05-01T00:00:54.484Z,6.05
2023-05-01T00:03:21.705Z,5.90
2023-05-01T00:05:48.896Z,6.22
2023-05-01T00:08:16.412Z,5.57
2023-05-01T00:10:43.463Z,6.10
2023-05-01T00:13:10.509Z,6.00
2023-05-01T00:15:37.582Z,5.90
2023-05-01T00:18:04.539Z,6.10
2023-05-01T00:20:31.684Z,5.93
2023-05-01T00:22:58.596Z,6.25
2023-05-01T00:25:25.627Z,6.28
2023-05-01T00:27:52.560Z,6.35
2023-05-01T00:30:19.460Z,6.80
2023-05-01T00:32:46.597Z,6.68
2023-05-01T00:35:13.635Z,6.47
2023-05-01T00:37:40.687Z,7.18
2023-05-01T00:40:08.575Z,7.35
2023-05-01T00:42:37.345Z,8.02
2023-05-01T00:45:04.574Z,8.48
2023-05-01T00:47:31.573Z,8.73
2023-05-01T00:49:59.984Z,8.10
2023-05-01T00:52:27.106Z,8.43
2023-05-01T00:54:55.187Z,8.90
2023-05-01T00:57:22.344Z,9.02
2023-05-01T00:59:49.561Z,8.85
2023-05-01T01:02:16.573Z,9.15
2023-05-01T01:04:46.675Z,8.88
2023-05-01T01:07:31.934Z,8.80
2023-05-01T01:10:41.336Z,8.80
2023-05-01T01:13:42.738Z,8.32
2023-05-01T01:16:16.368Z,7.65
2023-05-01T01:18:56.598Z,7.95
2023-05-01T01:21:32.732Z,7.38
2023-05-01T01:24:22.276Z,7.70
2023-05-01T01:27:02.636Z,7.63
2023-05-01T01:29:51.537Z,7.47
2023-05-01T01:32:48.993Z,8.30
2023-05-01T01:35:21.294Z,8.15
2023-05-01T01:38:36.140Z,8.73
2023-05-01T01:41:14.923Z,8.40
2023-05-01T01:43:47.006Z,8.40
2023-05-01T01:46:17.930Z,7.72
2023-05-01T01:48:49.123Z,8.75
2023-05-01T01:51:20.776Z,9.13
2023-05-01T01:53:52.260Z,9.82
2023-05-01T01:56:21.734Z,9.77
2023-05-01T01:58:48.763Z,9.77
2023-05-01T02:01:18.465Z,10.25
2023-05-01T02:03:47.943Z,10.23
2023-05-01T02:06:17.741Z,10.48
2023-05-01T02:08:49.083Z,10.25
2023-05-01T02:11:19.040Z,9.65
2023-05-01T02:13:46.493Z,10.02
2023-05-01T02:16:15.029Z,9.00
2023-05-01T02:18:43.783Z,9.20
2023-05-01T02:21:12.452Z,9.02
2023-05-01T02:23:39.442Z,8.90
2023-05-01T02:26:09.148Z,8.85
2023-05-01T02:28:41.521Z,8.23
2023-05-01T02:31:09.541Z,7.88
2023-05-01T02:33:36.524Z,7.80
2023-05-01T02:36:05.368Z,7.90
2023-05-01T02:38:32.859Z,6.80
2023-05-01T02:41:01.868Z,7.40
2023-05-01T02:43:29.440Z,7.00
2023-05-01T02:45:59.013Z,7.35
2023-05-01T02:48:28.284Z,6.82
2023-05-01T02:50:56.904Z,6.40
2023-05-01T02:53:23.854Z,6.18
2023-05-01T02:55:50.893Z,6.45
2023-05-01T02:58:18.921Z,7.30
2023-05-01T03:00:48.333Z,7.38
2023-05-01T03:03:16.374Z,7.35
2023-05-01T03:05:43.450Z,6.72
2023-05-01T03:08:10.803Z,7.20
2023-05-01T03:10:40.861Z,6.80
2023-05-01T03:13:08.505Z,6.78
2023-05-01T03:15:35.387Z,6.50
2023-05-01T03:18:02.530Z,6.78
2023-05-01T03:20:30.103Z,6.88
2023-05-01T03:22:57.649Z,6.45
2023-05-01T03:25:24.555Z,6.90
2023-05-01T03:27:53.117Z,6.95
2023-05-01T03:30:21.814Z,5.90
2023-05-01T03:32:48.773Z,6.90
2023-05-01T03:35:15.927Z,5.90
2023-05-01T03:37:42.962Z,6.22
2023-05-01T03:40:10.552Z,6.40
2023-05-01T03:42:37.474Z,6.35
2023-05-01T03:45:07.739Z,6.28
2023-05-01T03:47:34.892Z,6.10
2023-05-01T03:50:02.182Z,7.13
2023-05-01T03:52:29.389Z,6.68
2023-05-01T03:54:57.174Z,6.70
2023-05-01T03:57:24.213Z,6.18
2023-05-01T03:59:51.173Z,6.18
2023-05-01T04:02:18.594Z,6.00
2023-05-01T04:04:45.596Z,5.88
2023-05-01T04:07:14.115Z,5.93
2023-05-01T04:09:41.112Z,6.05
2023-05-01T04:12:08.065Z,6.28
2023-05-01T04:14:35.005Z,6.00
2023-05-01T04:17:02.088Z,6.10
2023-05-01T04:19:29.181Z,6.95
2023-05-01T04:21:56.970Z,6.40
2023-05-01T04:24:23.942Z,6.40
2023-05-01T04:26:50.953Z,6.10
2023-05-01T04:29:17.874Z,5.78
2023-05-01T04:31:44.898Z,6.05
2023-05-01T04:34:11.935Z,6.88
2023-05-01T04:36:38.965Z,6.05
2023-05-01T04:39:06.256Z,6.50
2023-05-01T04:41:33.156Z,6.60
2023-05-01T04:44:00.100Z,6.68
2023-05-01T04:46:27.072Z,6.88
2023-05-01T04:48:54.020Z,6.82
2023-05-01T04:51:21.673Z,6.70
2023-05-01T04:53:48.605Z,6.22
2023-05-01T04:56:15.927Z,6.00
2023-05-01T04:58:42.818Z,5.80
2023-05-01T05:01:10.228Z,6.22
2023-05-01T05:03:37.321Z,5.50
2023-05-01T05:06:04.589Z,5.35
2023-05-01T05:08:31.620Z,5.80
2023-05-01T05:11:02.449Z,5.90
2023-05-01T05:13:29.623Z,6.10
2023-05-01T05:15:56.595Z,5.25
2023-05-01T05:18:23.593Z,4.82
2023-05-01T05:20:50.701Z,5.45
2023-05-01T05:23:17.611Z,4.38
2023-05-01T05:25:44.504Z,5.03
2023-05-01T05:28:11.437Z,4.80
2023-05-01T05:30:38.484Z,4.20
2023-05-01T05:33:09.024Z,4.68
2023-05-01T05:35:35.999Z,4.28
2023-05-01T05:38:03.261Z,4.55
2023-05-01T05:40:30.204Z,4.13
2023-05-01T05:42:57.439Z,4.43
2023-05-01T05:45:24.481Z,4.32
2023-05-01T05:47:51.567Z,4.55
2023-05-01T05:50:18.547Z,5.32
2023-05-01T05:52:45.495Z,4.50
2023-05-01T05:55:12.568Z,4.03
2023-05-01T05:57:39.518Z,4.43
2023-05-01T06:00:07.990Z,4.82
2023-05-01T06:02:34.991Z,4.20
2023-05-01T06:05:02.118Z,5.70
2023-05-01T06:07:29.243Z,4.15
2023-05-01T06:10:01.737Z,4.90
2023-05-01T06:12:29.781Z,4.25
2023-05-01T06:14:57.349Z,4.38
2023-05-01T06:17:24.833Z,4.10
2023-05-01T06:19:55.198Z,4.68
2023-05-01T06:22:22.381Z,4.30
2023-05-01T06:24:49.374Z,4.68
2023-05-01T06:27:16.272Z,4.45
2023-05-01T06:29:43.134Z,4.28
2023-05-01T06:32:10.103Z,4.47
2023-05-01T06:34:37.054Z,4.40
2023-05-01T06:37:05.808Z,4.03
2023-05-01T06:39:32.701Z,3.92
2023-05-01T06:41:59.680Z,4.32
2023-05-01T06:44:26.573Z,3.90
2023-05-01T06:46:53.552Z,3.63
2023-05-01T06:49:20.451Z,4.00
2023-05-01T06:51:47.378Z,3.70
2023-05-01T06:54:14.323Z,4.93
2023-05-01T06:56:41.272Z,4.38
2023-05-01T06:59:09.137Z,3.60
2023-05-01T07:01:36.530Z,4.03
2023-05-01T07:04:04.197Z,3.85
2023-05-01T07:06:32.490Z,4.00
2023-05-01T07:08:59.456Z,3.75
2023-05-01T07:11:27.088Z,8.07
2023-05-01T07:13:54.725Z,6.30
2023-05-01T07:16:21.816Z,5.40
2023-05-01T07:18:48.804Z,4.03
2023-05-01T07:21:15.754Z,3.67
2023-05-01T07:23:42.729Z,3.70
2023-05-01T07:26:09.671Z,3.80
2023-05-01T07:28:36.615Z,3.65
2023-05-01T07:31:03.662Z,3.35
2023-05-01T07:33:30.699Z,3.33
2023-05-01T07:35:58.170Z,3.63
2023-05-01T07:38:25.159Z,3.45
2023-05-01T07:40:54.932Z,3.20
2023-05-01T07:43:21.921Z,4.13
2023-05-01T07:46:00.334Z,3.70
2023-05-01T07:48:29.019Z,4.18
2023-05-01T07:50:57.225Z,3.75
2023-05-01T07:53:24.227Z,3.45
2023-05-01T07:55:51.250Z,3.63
2023-05-01T07:58:18.157Z,3.53
2023-05-01T08:00:45.752Z,3.53
2023-05-01T08:03:13.325Z,3.28
2023-05-01T08:05:42.081Z,3.53
2023-05-01T08:08:09.819Z,3.60
2023-05-01T08:10:36.855Z,3.30
2023-05-01T08:13:03.851Z,3.30
2023-05-01T08:15:30.851Z,3.40
2023-05-01T08:17:57.807Z,3.70
2023-05-01T08:20:24.987Z,2.85
2023-05-01T08:22:51.912Z,3.28
2023-05-01T08:25:18.913Z,3.20
2023-05-01T08:27:45.828Z,3.25
2023-05-01T08:30:12.978Z,3.15
2023-05-01T08:32:39.996Z,3.10
2023-05-01T08:35:07.255Z,3.65
2023-05-01T08:37:34.708Z,3.65
2023-05-01T08:40:04.794Z,3.47
2023-05-01T08:42:32.442Z,3.15
2023-05-01T08:45:01.281Z,3.15
2023-05-01T08:47:30.717Z,3.28
2023-05-01T08:49:59.775Z,3.10
2023-05-01T08:52:29.210Z,3.65
2023-05-01T08:54:57.528Z,3.20
2023-05-01T08:57:25.490Z,3.00
2023-05-01T08:59:56.765Z,3.35
2023-05-01T09:02:24.972Z,3.30
2023-05-01T09:04:53.215Z,3.22
2023-05-01T09:07:20.235Z,3.30
2023-05-01T09:09:47.162Z,2.85
2023-05-01T09:12:24.366Z,2.88
2023-05-01T09:14:53.747Z,3.15
2023-05-01T09:17:22.632Z,3.22
2023-05-01T09:19:51.074Z,3.47
2023-05-01T09:22:19.098Z,3.42
2023-05-01T09:24:47.319Z,3.30
2023-05-01T09:27:15.230Z,2.97
2023-05-01T09:29:44.522Z,2.90
2023-05-01T09:32:16.232Z,3.38
2023-05-01T09:34:44.867Z,3.10
2023-05-01T09:37:34.248Z,3.17
2023-05-01T09:40:14.686Z,3.38
2023-05-01T09:42:50.239Z,3.25
2023-05-01T09:45:18.854Z,3.22
2023-05-01T09:47:47.045Z,3.63
2023-05-01T09:50:32.553Z,3.58
2023-05-01T09:53:05.260Z,3.45
2023-05-01T09:55:33.419Z,3.30
2023-05-01T09:58:00.823Z,3.20
2023-05-01T10:00:27.908Z,3.30
2023-05-01T10:02:55.139Z,3.08
2023-05-01T10:05:23.167Z,3.88
2023-05-01T10:08:03.852Z,3.17
2023-05-01T10:10:34.012Z,3.40
2023-05-01T10:13:17.881Z,3.38
2023-05-01T10:18:14.746Z,3.42
2023-05-01T10:20:41.930Z,3.78
2023-05-01T10:23:09.486Z,3.88
2023-05-01T10:25:37.072Z,3.55
2023-05-01T10:28:07.560Z,3.35
2023-05-01T10:30:36.062Z,3.28
2023-05-01T10:33:03.713Z,2.83
2023-05-01T10:35:40.713Z,3.47
2023-05-01T10:38:20.069Z,2.90
2023-05-01T10:40:48.295Z,2.80
2023-05-01T10:43:19.413Z,2.50
2023-05-01T10:45:48.016Z,2.88
2023-05-01T10:48:40.356Z,3.10
2023-05-01T10:51:09.580Z,2.75
2023-05-01T10:53:36.951Z,2.65
2023-05-01T10:56:06.084Z,3.03
2023-05-01T10:58:53.318Z,2.78
2023-05-01T11:01:31.666Z,2.50
2023-05-01T11:04:10.473Z,2.58
2023-05-01T11:06:40.561Z,2.60
2023-05-01T11:09:36.457Z,2.95
2023-05-01T11:12:03.927Z,2.88
2023-05-01T11:14:57.741Z,2.80
2023-05-01T11:20:24.434Z,3.00
2023-05-01T11:22:53.201Z,2.97
2023-05-01T11:25:21.817Z,2.72
2023-05-01T11:27:50.872Z,2.47
2023-05-01T11:30:18.367Z,2.60
2023-05-01T11:32:46.892Z,2.75
2023-05-01T11:35:18.402Z,2.50
2023-05-01T11:37:46.409Z,2.22
2023-05-01T11:40:33.349Z,2.60
2023-05-01T11:43:07.807Z,2.50
2023-05-01T11:45:37.069Z,2.90
2023-05-01T11:48:05.200Z,2.50
2023-05-01T11:50:33.421Z,2.35
2023-05-01T11:53:00.471Z,2.47
2023-05-01T11:55:34.742Z,2.72
2023-05-01T11:58:02.335Z,2.50
2023-05-01T12:00:34.116Z,2.20
2023-05-01T12:03:02.658Z,2.20
2023-05-01T12:05:31.753Z,2.25
2023-05-01T12:08:18.855Z,2.20
2023-05-01T12:10:48.662Z,2.13
2023-05-01T12:13:17.071Z,2.08
2023-05-01T12:15:48.746Z,2.10
2023-05-01T12:18:17.384Z,1.95
2023-05-01T12:20:52.362Z,2.00
2023-05-01T12:23:29.770Z,1.88
2023-05-01T12:25:56.992Z,2.10
2023-05-01T12:28:24.393Z,2.17
2023-05-01T12:30:51.429Z,2.53
2023-05-01T12:33:20.695Z,2.60
2023-05-01T12:35:49.868Z,2.45
2023-05-01T12:38:18.920Z,2.20
2023-05-01T12:40:57.958Z,2.30
2023-05-01T12:43:35.947Z,2.35
2023-05-01T12:46:04.860Z,2.13
2023-05-01T12:48:34.384Z,2.33
2023-05-01T12:51:01.785Z,2.20
2023-05-01T12:53:29.973Z,2.80
2023-05-01T12:55:58.957Z,3.00
2023-05-01T12:58:37.310Z,2.08
2023-05-01T13:01:04.888Z,1.60
2023-05-01T13:03:33.767Z,1.70
2023-05-01T13:06:03.342Z,1.88
2023-05-01T13:08:37.577Z,1.73
2023-05-01T13:11:16.454Z,1.42
2023-05-01T13:13:47.747Z,1.88
2023-05-01T13:16:16.588Z,2.03
2023-05-01T13:18:45.836Z,1.92
2023-05-01T13:21:16.353Z,1.63
2023-05-01T13:23:55.820Z,1.70
2023-05-01T13:26:35.667Z,1.75
2023-05-01T13:29:06.038Z,1.40
2023-05-01T13:31:33.168Z,1.60
2023-05-01T13:34:01.140Z,1.52
2023-05-01T13:36:33.147Z,1.58
2023-05-01T13:39:00.366Z,1.92
2023-05-01T13:41:28.312Z,2.10
2023-05-01T13:43:57.295Z,2.33
2023-05-01T13:46:27.196Z,2.10
2023-05-01T13:48:54.342Z,1.88
2023-05-01T13:51:27.371Z,1.73
2023-05-01T13:53:56.434Z,1.35
2023-05-01T13:56:23.519Z,1.70
2023-05-01T13:58:51.011Z,1.40
2023-05-01T14:01:20.899Z,2.25
2023-05-01T14:03:49.352Z,1.80
2023-05-01T14:06:19.587Z,1.50
2023-05-01T14:08:48.141Z,2.35
2023-05-01T14:11:15.674Z,1.70
2023-05-01T14:13:47.794Z,1.50
2023-05-01T14:16:25.265Z,2.13
2023-05-01T14:18:57.426Z,2.00
2023-05-01T14:21:28.239Z,2.00
2023-05-01T14:24:00.498Z,2.10
2023-05-01T14:26:27.851Z,1.83
2023-05-01T14:28:54.803Z,2.00
2023-05-01T14:31:21.776Z,1.70
2023-05-01T14:33:58.708Z,1.50
2023-05-01T14:36:28.641Z,2.35
2023-05-01T14:39:04.145Z,2.10
2023-05-01T14:41:32.287Z,1.90
2023-05-01T14:44:00.140Z,2.30
2023-05-01T14:46:35.708Z,2.10
2023-05-01T14:49:03.208Z,2.13
2023-05-01T14:51:32.357Z,2.65
2023-05-01T14:54:00.101Z,2.10
2023-05-01T14:56:27.323Z,2.60
2023-05-01T14:58:54.218Z,2.83
2023-05-01T15:01:21.716Z,3.10
2023-05-01T15:03:48.998Z,2.80
2023-05-01T15:06:16.250Z,3.25
2023-05-01T15:08:43.586Z,3.40
2023-05-01T15:11:11.742Z,3.78
2023-05-01T15:13:39.381Z,3.15
2023-05-01T15:16:08.356Z,2.80
2023-05-01T15:18:36.656Z,2.70
2023-05-01T15:21:04.690Z,2.80
2023-05-01T15:23:32.445Z,2.90
2023-05-01T15:26:01.052Z,3.65
2023-05-01T15:28:29.189Z,2.95
2023-05-01T15:30:56.439Z,2.42
2023-05-01T15:33:23.556Z,2.35
2023-05-01T15:35:52.781Z,2.35
2023-05-01T15:38:21.243Z,2.58
2023-05-01T15:40:50.129Z,2.83
2023-05-01T15:43:17.192Z,2.80
2023-05-01T15:45:45.008Z,2.80
2023-05-01T15:48:12.223Z,2.55
2023-05-01T15:50:39.425Z,2.92
2023-05-01T15:53:06.434Z,2.90
2023-05-01T15:55:34.409Z,2.75
2023-05-01T15:58:02.870Z,2.53
2023-05-01T16:00:29.944Z,2.65
2023-05-01T16:02:57.093Z,2.92
2023-05-01T16:05:26.818Z,2.80
2023-05-01T16:07:56.123Z,2.72
2023-05-01T16:10:23.496Z,2.75
2023-05-01T16:12:53.230Z,2.70
2023-05-01T16:15:20.346Z,2.75
2023-05-01T16:17:48.118Z,2.30
2023-05-01T16:20:17.294Z,2.80
2023-05-01T16:22:44.419Z,3.10
2023-05-01T16:25:12.140Z,2.63
2023-05-01T16:27:41.701Z,3.63
2023-05-01T16:30:09.485Z,3.20
2023-05-01T16:32:36.613Z,3.25
2023-05-01T16:35:05.676Z,3.17
2023-05-01T16:37:34.159Z,3.05
2023-05-01T16:40:01.873Z,3.20
2023-05-01T16:42:29.117Z,2.80
2023-05-01T16:44:57.008Z,2.53
2023-05-01T16:47:23.994Z,2.92
2023-05-01T16:49:52.502Z,3.20
2023-05-01T16:52:19.510Z,2.85
2023-05-01T16:54:46.495Z,2.80
2023-05-01T16:57:13.503Z,2.80
2023-05-01T16:59:40.660Z,2.75
2023-05-01T17:02:07.741Z,2.60
2023-05-01T17:04:34.990Z,2.80
2023-05-01T17:07:02.068Z,2.53
2023-05-01T17:09:29.074Z,2.53
2023-05-01T17:11:56.997Z,2.72
2023-05-01T17:14:24.079Z,2.67
2023-05-01T17:16:51.161Z,2.80
2023-05-01T17:19:18.181Z,2.80
2023-05-01T17:21:45.178Z,2.42
2023-05-01T17:24:14.109Z,2.70
2023-05-01T17:26:41.390Z,2.80
2023-05-01T17:29:08.635Z,2.70
2023-05-01T17:31:35.700Z,2.25
2023-05-01T17:34:02.665Z,2.30
2023-05-01T17:36:30.133Z,2.00
2023-05-01T17:38:57.128Z,1.92
2023-05-01T17:41:24.913Z,1.50
2023-05-01T17:43:51.928Z,1.70
2023-05-01T17:46:20.349Z,1.80
2023-05-01T17:48:48.719Z,1.50
2023-05-01T17:51:15.795Z,1.60
2023-05-01T17:53:42.805Z,1.88
2023-05-01T17:56:09.727Z,1.73
2023-05-01T17:58:36.795Z,1.83
2023-05-01T18:01:06.957Z,1.60
2023-05-01T18:03:34.086Z,1.60
2023-05-01T18:06:02.618Z,1.60
2023-05-01T18:08:29.695Z,1.60
2023-05-01T18:10:56.747Z,1.60
2023-05-01T18:13:28.679Z,1.50
2023-05-01T18:15:56.282Z,1.50
2023-05-01T18:18:23.822Z,1.15
2023-05-01T18:20:50.925Z,1.70
2023-05-01T18:23:19.028Z,1.45
2023-05-01T18:25:46.516Z,1.65
2023-05-01T18:28:16.518Z,1.45
2023-05-01T18:30:43.950Z,1.30
2023-05-01T18:33:12.319Z,1.40
2023-05-01T18:35:42.118Z,1.83
2023-05-01T18:38:10.173Z,2.00
2023-05-01T18:40:38.004Z,1.58
2023-05-01T18:43:05.226Z,1.95
2023-05-01T18:45:32.205Z,1.67
2023-05-01T18:48:00.897Z,1.80
2023-05-01T18:50:29.045Z,2.00
2023-05-01T18:52:56.091Z,2.10
2023-05-01T18:55:23.019Z,2.40
2023-05-01T18:57:50.035Z,2.38
2023-05-01T19:00:17.801Z,1.98
2023-05-01T19:02:51.423Z,2.17
2023-05-01T19:05:19.384Z,2.45
2023-05-01T19:07:46.750Z,3.05
2023-05-01T19:10:14.073Z,2.30
2023-05-01T19:12:42.293Z,1.95
2023-05-01T19:15:10.183Z,3.28
2023-05-01T19:17:37.563Z,2.80
2023-05-01T19:20:05.125Z,2.50
2023-05-01T19:22:32.147Z,2.30
2023-05-01T19:25:00.452Z,2.63
2023-05-01T19:27:27.503Z,3.05
2023-05-01T19:29:54.830Z,2.47
2023-05-01T19:32:23.373Z,2.38
2023-05-01T19:34:50.467Z,2.10
2023-05-01T19:37:17.698Z,2.15
2023-05-01T19:39:44.886Z,2.10
2023-05-01T19:42:12.124Z,1.80
2023-05-01T19:44:39.039Z,1.77
2023-05-01T19:47:06.315Z,1.85
2023-05-01T19:49:33.238Z,2.00
2023-05-01T19:52:00.704Z,2.17
2023-05-01T19:54:28.653Z,2.10
2023-05-01T19:56:56.250Z,2.50
2023-05-01T19:59:23.453Z,2.50
2023-05-01T20:01:50.777Z,2.30
2023-05-01T20:04:17.993Z,2.60
2023-05-01T20:06:45.142Z,2.45
2023-05-01T20:09:12.180Z,2.78
2023-05-01T20:11:39.212Z,2.60
2023-05-01T20:14:06.118Z,3.10
2023-05-01T20:16:33.312Z,2.70
2023-05-01T20:19:00.485Z,3.00
2023-05-01T20:21:27.583Z,3.00
2023-05-01T20:23:55.219Z,3.35
2023-05-01T20:26:22.208Z,2.80
2023-05-01T20:28:50.688Z,3.00
2023-05-01T20:31:17.896Z,3.00
2023-05-01T20:33:44.906Z,2.60
2023-05-01T20:36:11.828Z,2.97
2023-05-01T20:38:46.481Z,2.75
2023-05-01T20:41:14.171Z,3.33
2023-05-01T20:43:41.112Z,3.10
2023-05-01T20:46:08.347Z,3.10
2023-05-01T20:48:35.380Z,3.28
2023-05-01T20:51:02.359Z,3.10
2023-05-01T20:53:29.312Z,3.00
2023-05-01T20:55:56.276Z,3.10
2023-05-01T20:58:23.189Z,3.17
2023-05-01T21:00:52.874Z,3.30
2023-05-01T21:03:19.863Z,3.45
2023-05-01T21:05:46.876Z,3.83
2023-05-01T21:08:14.029Z,4.05
2023-05-01T21:10:41.455Z,3.15
2023-05-01T21:13:08.487Z,3.35
2023-05-01T21:15:35.497Z,3.53
2023-05-01T21:18:02.796Z,3.15
2023-05-01T21:20:31.993Z,2.95
2023-05-01T21:23:02.684Z,3.50
2023-05-01T21:25:32.059Z,3.35
2023-05-01T21:28:03.691Z,3.00
2023-05-01T21:30:35.229Z,3.30
2023-05-01T21:33:05.328Z,3.80
2023-05-01T21:35:32.990Z,3.20
2023-05-01T21:38:00.068Z,3.80
2023-05-01T21:40:27.435Z,3.60
2023-05-01T21:42:55.108Z,3.75
2023-05-01T21:45:22.339Z,3.47
2023-05-01T21:47:51.217Z,3.38
2023-05-01T21:50:21.509Z,4.00
2023-05-01T21:52:50.435Z,3.63
2023-05-01T21:55:26.217Z,3.45
2023-05-01T21:57:55.778Z,3.67
2023-05-01T22:00:22.843Z,4.72
2023-05-01T22:02:51.317Z,5.22
2023-05-01T22:05:22.717Z,6.35
2023-05-01T22:07:54.283Z,6.07
2023-05-01T22:10:21.534Z,6.85
2023-05-01T22:12:51.902Z,7.80
2023-05-01T22:15:19.196Z,8.30
2023-05-01T22:17:46.415Z,9.02
2023-05-01T22:20:13.592Z,8.45
2023-05-01T22:22:41.772Z,7.85
2023-05-01T22:25:10.285Z,8.55
2023-05-01T22:27:37.734Z,8.73
2023-05-01T22:30:05.653Z,9.05
2023-05-01T22:32:32.781Z,8.65
2023-05-01T22:34:59.900Z,8.60
2023-05-01T22:37:27.071Z,8.30
2023-05-01T22:39:54.206Z,9.38
2023-05-01T22:42:21.883Z,9.13
2023-05-01T22:44:49.197Z,8.90
2023-05-01T22:47:16.348Z,9.68
2023-05-01T22:49:43.291Z,9.52
2023-05-01T22:52:10.251Z,10.32
2023-05-01T22:54:37.224Z,9.85
2023-05-01T22:57:04.333Z,10.38
2023-05-01T22:59:31.466Z,10.50
2023-05-01T23:01:58.509Z,11.18
2023-05-01T23:04:25.595Z,11.57
2023-05-01T23:06:52.788Z,11.00
2023-05-01T23:09:19.753Z,10.90
2023-05-01T23:11:47.907Z,11.75
2023-05-01T23:14:18.505Z,12.20
2023-05-01T23:16:45.466Z,11.48
2023-05-01T23:19:20.710Z,10.90
2023-05-01T23:21:49.126Z,12.05
2023-05-01T23:24:18.458Z,13.48
2023-05-01T23:26:46.009Z,12.23
2023-05-01T23:29:13.955Z,13.77
2023-05-01T23:31:47.157Z,15.50
2023-05-01T23:34:17.793Z,17.15
2023-05-01T23:36:46.856Z,16.08
2023-05-01T23:39:14.418Z,17.77
2023-05-01T23:41:41.600Z,16.50
2023-05-01T23:44:09.686Z,16.75
2023-05-01T23:46:37.232Z,18.42
2023-05-01T23:49:04.462Z,17.15
2023-05-01T23:51:32.166Z,18.65
2023-05-01T23:54:00.058Z,18.58
2023-05-01T23:56:27.035Z,18.20
2023-05-01T23:58:53.967Z,19.42
